0M2 weather

Reelfoot Lake Airport
Tiptonville, Tennessee, United States

Public forecast

Using degrees Fahrenheit for public forecast. Weather courtesy of forecast.io.

METAR (pilot weather report)

Closest report is Everett-Stewart Regional Airport, 18.3 nm (33.9 km) ESE. Retrieved 2019/06/15 20:35 UTC (19 minutes ago):

KUCY 152035Z AUTO 20011G18KT 160V220 10SM CLR 30/19 A2988 RMK A01

TAF (pilot weather forecast)

Closest forecast is Barkley Regional Airport, 44.7 nm (82.7 km) NE. Retrieved 2019/06/15 18:22 UTC (3 hours ago):

TAF KPAH 151720Z 1518/1618 21016G24KT P6SM SCT060 BKN110 BKN200 TEMPO 1520/1522 -SHRA BKN050 FM152200 21012G20KT P6SM SCT040 BKN120 FM160000 21010KT P6SM FEW045 SCT120 FM160800 22010KT P6SM VCSH SCT045 BKN200 FM161400 22010KT P6SM SCT024 BKN080